Time;durP1;ratioP1;P1;durP2;ratioP2;P2;SDS_P1;SDS_P2;PMS_P1;PMS_P2;Temp;Humidity;BMP_temperature;BMP_pressure;BME280_temperature;BME280_humidity;BME280_pressure;Samples;Min_cycle;Max_cycle;Signal;HPM_P1;HPM_P2
2022/02/07 00:00:04;;;;;;;88.32;40.08;;;;;;;;;;5034233;28;20025;-66
2022/02/07 00:02:50;;;;;;;83.32;37.13;;;;;;;;;;5034220;28;20068;-65
2022/02/07 00:05:21;;;;;;;64.10;30.63;;;;;;;;;;5032818;28;20087;-66
2022/02/07 00:07:47;;;;;;;89.00;43.67;;;;;;;;;;5034122;28;20025;-66
2022/02/07 00:10:14;;;;;;;84.30;39.13;;;;;;;;;;5033699;28;20111;-67
2022/02/07 00:12:45;;;;;;;81.82;36.05;;;;;;;;;;5034007;28;20496;-66
2022/02/07 00:15:12;;;;;;;66.53;31.95;;;;;;;;;;5067392;28;20045;-63
2022/02/07 00:17:38;;;;;;;63.22;29.90;;;;;;;;;;5073966;28;20020;-64
2022/02/07 00:20:10;;;;;;;59.30;28.10;;;;;;;;;;5073680;28;20169;-64
2022/02/07 00:22:36;;;;;;;74.18;34.78;;;;;;;;;;5073663;28;20016;-64
2022/02/07 00:25:02;;;;;;;64.10;28.75;;;;;;;;;;5073580;28;20553;-64
2022/02/07 00:27:28;;;;;;;52.42;25.00;;;;;;;;;;5073578;28;20029;-64
2022/02/07 00:29:55;;;;;;;53.55;24.08;;;;;;;;;;5073494;28;20035;-64
2022/02/07 00:32:21;;;;;;;61.17;28.48;;;;;;;;;;5073227;28;20513;-64
2022/02/07 00:34:47;;;;;;;60.95;25.95;;;;;;;;;;5073343;28;20032;-64
2022/02/07 00:37:14;;;;;;;66.22;29.60;;;;;;;;;;5073420;28;20028;-64
2022/02/07 00:39:49;;;;;;;59.88;28.45;;;;;;;;;;5073310;28;20107;-63
2022/02/07 00:42:30;;;;;;;67.70;29.85;;;;;;;;;;5073332;28;20040;-64
2022/02/07 00:48:01;;;;;;;51.28;23.42;;;;;;;;;;5073062;28;20035;-63
2022/02/07 00:50:27;;;;;;;49.35;22.90;;;;;;;;;;5073276;28;20039;-64
2022/02/07 00:52:54;;;;;;;53.03;24.23;;;;;;;;;;5073519;28;20059;-64
2022/02/07 00:55:21;;;;;;;50.33;23.13;;;;;;;;;;5073135;28;20039;-65
2022/02/07 00:57:47;;;;;;;39.78;18.17;;;;;;;;;;5073127;28;20107;-63
2022/02/07 01:00:13;;;;;;;30.75;14.52;;;;;;;;;;5073365;28;20461;-65
2022/02/07 01:02:40;;;;;;;25.55;12.73;;;;;;;;;;5073444;28;20029;-65
2022/02/07 01:05:06;;;;;;;25.63;13.27;;;;;;;;;;5073311;28;20107;-64
2022/02/07 01:07:32;;;;;;;19.80;10.43;;;;;;;;;;5073326;28;20028;-64
2022/02/07 01:09:59;;;;;;;20.92;10.27;;;;;;;;;;5054998;28;20025;-64
2022/02/07 01:47:47;;;;;;;22.58;9.10;;;;;;;;;;5072734;28;20036;-65
2022/02/07 01:55:50;;;;;;;16.95;8.88;;;;;;;;;;4990609;28;20046;-64
2022/02/07 01:58:16;;;;;;;16.70;9.15;;;;;;;;;;4990958;28;20101;-64
2022/02/07 02:00:43;;;;;;;23.58;11.43;;;;;;;;;;4990873;28;20188;-64
2022/02/07 02:03:10;;;;;;;20.58;10.98;;;;;;;;;;4974573;28;20026;-65
2022/02/07 02:05:37;;;;;;;26.88;12.80;;;;;;;;;;4990823;28;20137;-64
2022/02/07 02:08:07;;;;;;;24.38;11.40;;;;;;;;;;4974522;28;20058;-65
2022/02/07 02:10:39;;;;;;;20.95;9.80;;;;;;;;;;4974477;28;20022;-65
2022/02/07 02:13:12;;;;;;;32.00;11.57;;;;;;;;;;4974451;28;20038;-65
2022/02/07 02:15:47;;;;;;;22.25;10.98;;;;;;;;;;4990725;28;20034;-65
2022/02/07 02:32:42;;;;;;;23.08;12.27;;;;;;;;;;4990951;28;20032;-65
2022/02/07 02:35:40;;;;;;;22.00;10.82;;;;;;;;;;5075656;28;20397;-65
2022/02/07 02:38:05;;;;;;;26.77;10.10;;;;;;;;;;5064263;28;20032;-65
2022/02/07 02:46:01;;;;;;;31.15;14.63;;;;;;;;;;5075321;28;20539;-66
2022/02/07 02:48:28;;;;;;;33.70;15.70;;;;;;;;;;5075464;28;20119;-65
2022/02/07 02:50:56;;;;;;;21.77;10.32;;;;;;;;;;5075480;28;20112;-65
2022/02/07 02:53:23;;;;;;;17.50;8.32;;;;;;;;;;5075446;28;20035;-65
2022/02/07 02:55:50;;;;;;;13.85;7.35;;;;;;;;;;5075273;28;20036;-65
2022/02/07 02:58:19;;;;;;;15.48;7.82;;;;;;;;;;5075584;28;20024;-64
2022/02/07 03:00:49;;;;;;;14.45;6.57;;;;;;;;;;5075220;28;20032;-64
2022/02/07 03:03:16;;;;;;;12.57;6.35;;;;;;;;;;5075554;28;20389;-64
2022/02/07 03:05:44;;;;;;;10.77;5.88;;;;;;;;;;5075164;28;20048;-66
2022/02/07 03:08:14;;;;;;;10.30;5.57;;;;;;;;;;5075125;28;20480;-65
2022/02/07 03:13:17;;;;;;;13.50;5.70;;;;;;;;;;5074917;28;20039;-65
2022/02/07 03:18:28;;;;;;;9.35;5.40;;;;;;;;;;5075003;28;20441;-67
2022/02/07 03:20:55;;;;;;;11.82;5.72;;;;;;;;;;5074886;28;20449;-66
2022/02/07 03:23:21;;;;;;;9.32;5.82;;;;;;;;;;5074887;28;20034;-65
2022/02/07 03:25:48;;;;;;;16.88;6.07;;;;;;;;;;5074806;28;20039;-68
2022/02/07 03:28:15;;;;;;;13.73;7.38;;;;;;;;;;5074720;28;20029;-66
2022/02/07 03:30:41;;;;;;;13.27;6.78;;;;;;;;;;5074979;28;20055;-66
2022/02/07 03:33:08;;;;;;;19.25;7.05;;;;;;;;;;5074603;28;20078;-66
2022/02/07 03:35:35;;;;;;;28.15;8.45;;;;;;;;;;5074581;28;20039;-64
2022/02/07 03:38:01;;;;;;;30.25;9.05;;;;;;;;;;5074536;28;20453;-67
2022/02/07 03:40:27;;;;;;;12.23;6.70;;;;;;;;;;5074383;28;20048;-67
2022/02/07 03:42:54;;;;;;;16.92;7.55;;;;;;;;;;5074689;28;20104;-64
2022/02/07 03:45:20;;;;;;;14.73;7.63;;;;;;;;;;5074455;28;20120;-64
2022/02/07 03:47:46;;;;;;;15.57;7.22;;;;;;;;;;5074316;28;20104;-65
2022/02/07 03:50:13;;;;;;;11.88;7.30;;;;;;;;;;5056351;28;20032;-64
2022/02/07 03:52:42;;;;;;;13.20;7.53;;;;;;;;;;5074240;28;20100;-65
2022/02/07 03:55:08;;;;;;;16.45;8.23;;;;;;;;;;5074425;28;20059;-65
2022/02/07 03:57:35;;;;;;;14.38;8.00;;;;;;;;;;5074163;28;20020;-65
2022/02/07 04:00:04;;;;;;;9.07;5.95;;;;;;;;;;5074320;28;20039;-63
2022/02/07 04:02:32;;;;;;;13.60;6.60;;;;;;;;;;5056052;28;20028;-64
2022/02/07 04:05:17;;;;;;;12.07;6.22;;;;;;;;;;5056064;28;20381;-63
2022/02/07 04:07:44;;;;;;;17.73;7.30;;;;;;;;;;5074028;28;20051;-64
2022/02/07 04:10:11;;;;;;;11.82;5.53;;;;;;;;;;5055853;28;20099;-65
2022/02/07 04:12:39;;;;;;;10.68;4.93;;;;;;;;;;5073860;28;20029;-67
2022/02/07 04:15:09;;;;;;;12.63;5.32;;;;;;;;;;5073782;28;20092;-65
2022/02/07 04:17:42;;;;;;;12.63;6.63;;;;;;;;;;5073482;28;20405;-65
2022/02/07 04:20:08;;;;;;;15.70;7.45;;;;;;;;;;5073704;28;20094;-66
2022/02/07 04:22:35;;;;;;;17.20;8.32;;;;;;;;;;5073678;28;20063;-65
2022/02/07 04:25:04;;;;;;;24.15;9.98;;;;;;;;;;5073679;28;20034;-68
2022/02/07 04:27:30;;;;;;;20.58;9.00;;;;;;;;;;5055639;28;20120;-65
2022/02/07 04:29:57;;;;;;;19.63;9.70;;;;;;;;;;5073526;28;20025;-65
2022/02/07 04:32:23;;;;;;;18.38;10.13;;;;;;;;;;5055505;28;20067;-66
2022/02/07 04:34:49;;;;;;;22.30;10.52;;;;;;;;;;5073099;28;20473;-65
2022/02/07 04:37:17;;;;;;;28.75;12.65;;;;;;;;;;5073388;28;20028;-64
2022/02/07 04:39:43;;;;;;;28.90;12.48;;;;;;;;;;5073356;28;20078;-66
2022/02/07 04:42:12;;;;;;;28.33;12.65;;;;;;;;;;5055385;28;20393;-66
2022/02/07 04:44:49;;;;;;;21.48;10.48;;;;;;;;;;5055311;28;20116;-65
2022/02/07 04:55:12;;;;;;;15.32;8.95;;;;;;;;;;5073146;28;20116;-64
2022/02/07 05:00:29;;;;;;;35.63;11.63;;;;;;;;;;5073099;28;20127;-63
2022/02/07 05:03:07;;;;;;;24.90;13.93;;;;;;;;;;5072834;28;20044;-64
2022/02/07 05:13:47;;;;;;;40.63;12.23;;;;;;;;;;5077481;28;20050;-67
2022/02/07 05:16:20;;;;;;;37.10;12.73;;;;;;;;;;5095162;28;20039;-67
2022/02/07 05:18:50;;;;;;;29.55;12.55;;;;;;;;;;5113518;28;20236;-65
2022/02/07 05:21:17;;;;;;;28.48;13.98;;;;;;;;;;5113531;28;20019;-67
2022/02/07 05:23:43;;;;;;;24.52;13.40;;;;;;;;;;5095170;28;20069;-66
2022/02/07 05:26:09;;;;;;;29.85;14.30;;;;;;;;;;5113719;28;20106;-66
2022/02/07 05:28:36;;;;;;;31.90;15.63;;;;;;;;;;5095059;28;20036;-66
2022/02/07 05:31:02;;;;;;;32.60;14.77;;;;;;;;;;5113333;28;20088;-66
2022/02/07 05:33:28;;;;;;;28.90;13.63;;;;;;;;;;5113394;28;20070;-65
2022/02/07 05:35:55;;;;;;;31.27;15.32;;;;;;;;;;5113427;28;20077;-63
2022/02/07 05:38:21;;;;;;;34.50;16.05;;;;;;;;;;5113349;28;20023;-63
2022/02/07 05:40:58;;;;;;;35.05;16.45;;;;;;;;;;5113254;28;20026;-64
2022/02/07 05:43:24;;;;;;;35.97;16.48;;;;;;;;;;5113311;28;20023;-63
2022/02/07 05:45:51;;;;;;;36.03;17.65;;;;;;;;;;5113556;28;20031;-65
2022/02/07 05:48:17;;;;;;;29.67;15.65;;;;;;;;;;5094869;28;20119;-64
2022/02/07 05:50:43;;;;;;;33.25;16.05;;;;;;;;;;5112918;28;20024;-66
2022/02/07 05:53:09;;;;;;;33.58;14.38;;;;;;;;;;5113096;28;20110;-64
2022/02/07 05:55:35;;;;;;;36.97;13.98;;;;;;;;;;5109095;28;20187;-66
2022/02/07 05:58:02;;;;;;;30.83;12.98;;;;;;;;;;5091825;28;20506;-65
2022/02/07 06:00:32;;;;;;;31.35;14.35;;;;;;;;;;5092611;28;20492;-63
2022/02/07 06:02:59;;;;;;;32.28;13.98;;;;;;;;;;5074476;28;20114;-62
2022/02/07 06:05:26;;;;;;;52.58;21.02;;;;;;;;;;5077731;28;20115;-64
2022/02/07 06:07:52;;;;;;;63.28;28.67;;;;;;;;;;5096295;28;20038;-63
2022/02/07 06:10:18;;;;;;;63.72;29.45;;;;;;;;;;5096091;28;20453;-63
2022/02/07 06:12:46;;;;;;;69.07;30.77;;;;;;;;;;5096222;28;20031;-63
2022/02/07 06:15:12;;;;;;;81.00;35.75;;;;;;;;;;5095832;28;20538;-63
2022/02/07 06:17:39;;;;;;;71.38;31.77;;;;;;;;;;5095919;28;20485;-63
2022/02/07 06:20:06;;;;;;;69.13;33.42;;;;;;;;;;5096031;28;20461;-63
2022/02/07 06:22:32;;;;;;;72.80;33.53;;;;;;;;;;5096057;28;20020;-63
2022/02/07 06:24:59;;;;;;;66.57;33.00;;;;;;;;;;5095784;28;20021;-63
2022/02/07 06:27:25;;;;;;;71.18;32.00;;;;;;;;;;5077736;28;20060;-63
2022/02/07 06:29:51;;;;;;;72.30;31.45;;;;;;;;;;5095812;28;20067;-63
2022/02/07 06:32:18;;;;;;;76.32;35.15;;;;;;;;;;5095589;28;20111;-63
2022/02/07 06:34:44;;;;;;;69.53;34.47;;;;;;;;;;5095805;28;20107;-64
2022/02/07 06:37:10;;;;;;;80.63;37.83;;;;;;;;;;5095448;28;20520;-63
2022/02/07 06:39:36;;;;;;;98.22;44.08;;;;;;;;;;5095633;28;20028;-64
2022/02/07 06:42:02;;;;;;;90.90;45.63;;;;;;;;;;5095666;28;20455;-64
2022/02/07 06:44:29;;;;;;;87.07;44.55;;;;;;;;;;5095550;28;20020;-64
2022/02/07 06:46:55;;;;;;;91.88;44.28;;;;;;;;;;5095566;28;20114;-63
2022/02/07 06:49:22;;;;;;;119.68;48.40;;;;;;;;;;5095528;28;20028;-64
2022/02/07 06:51:48;;;;;;;106.85;51.60;;;;;;;;;;5095490;28;20085;-64
2022/02/07 06:54:15;;;;;;;110.28;53.50;;;;;;;;;;5095301;28;20024;-64
2022/02/07 06:56:42;;;;;;;115.97;51.15;;;;;;;;;;5095128;28;20732;-64
2022/02/07 06:59:08;;;;;;;82.57;39.92;;;;;;;;;;5095262;28;20024;-64
2022/02/07 07:01:35;;;;;;;74.93;36.35;;;;;;;;;;5095288;28;20038;-65
2022/02/07 07:04:01;;;;;;;76.15;38.45;;;;;;;;;;5095196;28;20025;-64
2022/02/07 07:06:28;;;;;;;91.72;39.42;;;;;;;;;;5095098;28;20036;-64
2022/02/07 07:08:55;;;;;;;85.82;42.22;;;;;;;;;;5094892;28;20046;-65
2022/02/07 07:11:25;;;;;;;86.72;39.35;;;;;;;;;;5095120;28;20465;-64
2022/02/07 07:13:55;;;;;;;87.38;39.83;;;;;;;;;;5075474;28;20048;-64
2022/02/07 07:19:00;;;;;;;101.57;45.38;;;;;;;;;;5095098;28;20111;-67
2022/02/07 07:21:27;;;;;;;104.35;43.53;;;;;;;;;;5097671;28;20054;-69
2022/02/07 07:23:54;;;;;;;125.90;56.10;;;;;;;;;;5094453;28;20369;-68
2022/02/07 07:26:23;;;;;;;105.45;46.40;;;;;;;;;;5094677;28;20111;-67
2022/02/07 07:28:49;;;;;;;93.13;43.53;;;;;;;;;;5094561;28;20074;-67
2022/02/07 07:31:17;;;;;;;94.80;46.72;;;;;;;;;;5094623;28;20042;-67
2022/02/07 07:33:50;;;;;;;101.28;46.45;;;;;;;;;;5094692;28;20027;-68
2022/02/07 07:36:16;;;;;;;103.68;50.42;;;;;;;;;;5094588;28;20038;-70
2022/02/07 07:38:42;;;;;;;108.57;52.60;;;;;;;;;;5094643;28;20020;-65
2022/02/07 07:41:12;;;;;;;104.88;52.65;;;;;;;;;;5094031;28;20392;-65
2022/02/07 07:43:40;;;;;;;102.68;45.53;;;;;;;;;;5094059;28;20032;-67
2022/02/07 07:46:11;;;;;;;81.93;41.42;;;;;;;;;;5093912;28;20483;-67
2022/02/07 07:48:41;;;;;;;69.57;36.25;;;;;;;;;;5094281;28;20020;-67
2022/02/07 07:51:23;;;;;;;63.70;33.22;;;;;;;;;;5094128;28;20530;-66
2022/02/07 07:54:14;;;;;;;70.75;34.78;;;;;;;;;;5094194;28;20363;-66
2022/02/07 08:02:16;;;;;;;71.57;37.22;;;;;;;;;;5093729;28;20055;-65
2022/02/07 08:04:45;;;;;;;72.38;36.83;;;;;;;;;;5094021;28;20024;-65
2022/02/07 08:10:07;;;;;;;67.28;33.75;;;;;;;;;;5094002;28;20024;-65
2022/02/07 08:12:36;;;;;;;62.78;33.15;;;;;;;;;;5093980;28;20368;-65
2022/02/07 08:15:02;;;;;;;62.92;34.20;;;;;;;;;;5075264;28;20063;-64
2022/02/07 08:17:29;;;;;;;65.63;33.53;;;;;;;;;;5093850;28;20445;-64
2022/02/07 08:19:56;;;;;;;69.00;38.03;;;;;;;;;;5093868;28;20107;-63
2022/02/07 08:22:25;;;;;;;66.70;36.38;;;;;;;;;;5093817;28;20016;-64
2022/02/07 08:24:55;;;;;;;67.03;33.63;;;;;;;;;;5093697;28;20051;-67
2022/02/07 08:27:29;;;;;;;69.20;34.97;;;;;;;;;;5074760;28;20081;-66
2022/02/07 08:29:55;;;;;;;77.00;37.65;;;;;;;;;;5093280;28;20358;-65
2022/02/07 08:32:22;;;;;;;433.48;194.30;;;;;;;;;;5090773;28;20028;-64
2022/02/07 08:34:48;;;;;;;154.18;72.03;;;;;;;;;;5090480;28;20051;-68
2022/02/07 08:37:15;;;;;;;64.85;36.28;;;;;;;;;;5093376;28;20032;-64
2022/02/07 08:39:42;;;;;;;60.88;33.65;;;;;;;;;;5093310;28;20103;-68
2022/02/07 08:42:08;;;;;;;72.85;37.80;;;;;;;;;;5091859;28;20375;-65
2022/02/07 08:44:35;;;;;;;91.15;47.83;;;;;;;;;;5093273;28;20032;-65
2022/02/07 08:47:01;;;;;;;114.88;60.42;;;;;;;;;;5093238;28;20051;-65
2022/02/07 08:49:27;;;;;;;107.85;57.83;;;;;;;;;;5093373;28;20053;-64
2022/02/07 08:51:53;;;;;;;80.18;41.83;;;;;;;;;;5092963;28;20028;-66
2022/02/07 08:54:24;;;;;;;45.15;24.08;;;;;;;;;;5092946;28;20028;-66
2022/02/07 08:56:59;;;;;;;37.45;18.67;;;;;;;;;;5093278;28;20036;-63
2022/02/07 08:59:40;;;;;;;26.98;14.18;;;;;;;;;;5093440;28;20061;-63
2022/02/07 09:02:18;;;;;;;28.35;15.30;;;;;;;;;;5093371;28;20513;-64
2022/02/07 09:04:51;;;;;;;30.58;16.25;;;;;;;;;;5091725;28;20035;-64
2022/02/07 09:07:24;;;;;;;35.42;19.40;;;;;;;;;;5092705;28;20024;-64
2022/02/07 09:09:50;;;;;;;41.80;22.00;;;;;;;;;;5102433;28;20342;-63
2022/02/07 09:12:16;;;;;;;43.05;23.60;;;;;;;;;;5092984;28;20031;-64
2022/02/07 09:14:50;;;;;;;43.75;22.73;;;;;;;;;;5071144;28;20044;-64
2022/02/07 09:17:16;;;;;;;270.23;121.43;;;;;;;;;;5072727;28;20038;-64
2022/02/07 09:19:42;;;;;;;73.22;40.80;;;;;;;;;;5072489;28;20029;-64
2022/02/07 09:22:09;;;;;;;39.40;27.88;;;;;;;;;;5072699;28;20530;-64
2022/02/07 09:24:35;;;;;;;61.05;38.35;;;;;;;;;;5071282;28;20119;-64
2022/02/07 09:27:01;;;;;;;91.18;53.22;;;;;;;;;;5072799;28;20035;-63
2022/02/07 09:29:27;;;;;;;94.43;53.30;;;;;;;;;;5071386;28;20028;-64
2022/02/07 09:31:54;;;;;;;185.15;101.35;;;;;;;;;;5072675;28;20025;-65
2022/02/07 09:34:20;;;;;;;183.70;100.65;;;;;;;;;;5052293;28;20021;-65
2022/02/07 09:36:46;;;;;;;79.97;45.47;;;;;;;;;;5050935;28;20052;-65
2022/02/07 09:39:12;;;;;;;103.75;55.67;;;;;;;;;;5054782;28;20383;-65
2022/02/07 09:41:40;;;;;;;52.80;28.38;;;;;;;;;;5056282;28;20458;-64
2022/02/07 09:44:07;;;;;;;61.25;33.17;;;;;;;;;;5056576;28;20025;-65
2022/02/07 09:46:35;;;;;;;18.00;8.35;;;;;;;;;;5056492;28;20039;-66
2022/02/07 09:49:03;;;;;;;12.23;7.18;;;;;;;;;;5055478;28;20025;-65
2022/02/07 09:51:30;;;;;;;12.73;8.02;;;;;;;;;;5056423;28;20346;-65
2022/02/07 09:53:56;;;;;;;16.48;8.60;;;;;;;;;;5056538;28;20389;-65
2022/02/07 09:56:23;;;;;;;8.13;3.28;;;;;;;;;;5054784;28;20466;-66
2022/02/07 09:58:52;;;;;;;5.13;3.58;;;;;;;;;;5056511;28;20108;-64
2022/02/07 10:01:26;;;;;;;9.15;5.75;;;;;;;;;;5056450;28;20029;-64
2022/02/07 10:03:59;;;;;;;5.72;3.50;;;;;;;;;;5056318;28;20032;-65
2022/02/07 10:06:40;;;;;;;6.53;4.10;;;;;;;;;;5056372;28;20056;-65
2022/02/07 10:15:07;;;;;;;19.80;10.25;;;;;;;;;;5078865;28;20453;-65
2022/02/07 10:34:25;;;;;;;3.23;2.93;;;;;;;;;;5054158;28;20442;-63
2022/02/07 10:40:12;;;;;;;3.58;2.30;;;;;;;;;;5095037;28;20123;-65
2022/02/07 10:43:07;;;;;;;5.60;3.72;;;;;;;;;;5076513;28;20438;-68
2022/02/07 10:45:34;;;;;;;6.45;3.60;;;;;;;;;;5076497;28;20464;-66
2022/02/07 10:48:05;;;;;;;4.85;3.30;;;;;;;;;;5095578;28;20028;-65
2022/02/07 10:50:31;;;;;;;4.40;3.47;;;;;;;;;;5094883;28;20020;-66
2022/02/07 10:52:59;;;;;;;11.85;5.78;;;;;;;;;;5095601;28;20253;-66
2022/02/07 10:55:31;;;;;;;7.45;3.05;;;;;;;;;;5077361;28;20059;-66
2022/02/07 10:57:59;;;;;;;13.90;6.43;;;;;;;;;;5095589;28;20068;-65
2022/02/07 11:00:31;;;;;;;9.52;4.65;;;;;;;;;;5077096;28;20063;-65
2022/02/07 11:03:05;;;;;;;8.48;3.67;;;;;;;;;;5077360;28;20020;-66
2022/02/07 11:05:43;;;;;;;6.53;3.95;;;;;;;;;;5095462;28;20082;-67
2022/02/07 11:13:44;;;;;;;6.72;3.10;;;;;;;;;;5094960;28;20461;-64
2022/02/07 11:16:29;;;;;;;9.65;6.75;;;;;;;;;;5095265;28;20056;-66
2022/02/07 11:21:48;;;;;;;20.73;11.52;;;;;;;;;;5095100;28;20034;-64
2022/02/07 11:24:37;;;;;;;19.98;10.27;;;;;;;;;;5095127;28;20024;-70
2022/02/07 11:27:22;;;;;;;13.50;7.07;;;;;;;;;;5095093;28;20028;-74
2022/02/07 11:29:49;;;;;;;19.13;8.10;;;;;;;;;;5076711;28;20059;-67
2022/02/07 11:32:46;;;;;;;21.92;8.48;;;;;;;;;;5076657;28;20024;-68
2022/02/07 11:35:16;;;;;;;20.25;8.10;;;;;;;;;;5075552;28;20040;-67
2022/02/07 11:37:43;;;;;;;17.70;7.35;;;;;;;;;;5094469;28;20045;-70
2022/02/07 11:40:29;;;;;;;23.02;10.40;;;;;;;;;;5076335;28;20032;-70
2022/02/07 11:43:10;;;;;;;9.60;4.88;;;;;;;;;;5076375;28;20035;-68
2022/02/07 11:45:55;;;;;;;12.00;5.40;;;;;;;;;;5094239;28;20028;-67
2022/02/07 11:48:27;;;;;;;6.80;4.38;;;;;;;;;;5092731;28;20020;-68
2022/02/07 11:50:55;;;;;;;12.15;4.88;;;;;;;;;;5075921;28;20020;-65
2022/02/07 11:53:26;;;;;;;14.43;6.32;;;;;;;;;;5094338;28;20028;-65
2022/02/07 11:56:06;;;;;;;9.88;4.68;;;;;;;;;;5075877;28;20032;-62
2022/02/07 11:58:54;;;;;;;13.82;6.43;;;;;;;;;;5094209;28;20020;-65
2022/02/07 12:01:24;;;;;;;13.30;5.95;;;;;;;;;;5094200;28;20485;-64
2022/02/07 12:03:54;;;;;;;11.93;4.93;;;;;;;;;;5076113;28;20372;-65
2022/02/07 12:06:24;;;;;;;96.38;48.65;;;;;;;;;;5076090;28;20481;-62
2022/02/07 12:08:53;;;;;;;12.63;6.33;;;;;;;;;;5093923;28;20016;-63
2022/02/07 12:11:19;;;;;;;11.55;5.65;;;;;;;;;;5093941;28;20804;-63
2022/02/07 12:13:46;;;;;;;15.75;6.00;;;;;;;;;;5075069;28;20105;-62
2022/02/07 12:16:18;;;;;;;6.90;3.40;;;;;;;;;;5093806;28;20119;-62
2022/02/07 12:19:03;;;;;;;9.80;3.85;;;;;;;;;;5093703;28;20024;-64
2022/02/07 12:21:29;;;;;;;12.70;5.53;;;;;;;;;;5093966;28;20050;-63
2022/02/07 12:23:57;;;;;;;6.55;2.90;;;;;;;;;;5104328;28;20555;-65
2022/02/07 12:26:24;;;;;;;8.57;4.22;;;;;;;;;;5095561;28;20084;-65
2022/02/07 12:28:57;;;;;;;9.43;3.58;;;;;;;;;;5113965;28;20061;-62
2022/02/07 12:31:24;;;;;;;9.15;3.83;;;;;;;;;;5114029;28;20055;-63
2022/02/07 12:33:54;;;;;;;15.73;5.65;;;;;;;;;;5113441;28;20023;-62
2022/02/07 12:36:20;;;;;;;12.43;5.63;;;;;;;;;;5113721;28;20077;-63
2022/02/07 12:38:47;;;;;;;30.52;8.98;;;;;;;;;;5113857;28;20109;-63
2022/02/07 12:41:14;;;;;;;13.98;7.00;;;;;;;;;;5113759;28;20028;-62
2022/02/07 12:43:43;;;;;;;14.18;6.00;;;;;;;;;;5113662;28;20020;-63
2022/02/07 12:46:11;;;;;;;17.05;5.55;;;;;;;;;;5113951;28;20023;-63
2022/02/07 12:48:42;;;;;;;9.35;4.85;;;;;;;;;;5113022;28;20031;-63
2022/02/07 12:51:08;;;;;;;12.35;5.95;;;;;;;;;;5101597;28;20368;-63
2022/02/07 12:53:35;;;;;;;17.08;5.90;;;;;;;;;;5091757;28;20020;-62
2022/02/07 12:56:04;;;;;;;5.45;3.05;;;;;;;;;;5076675;28;20039;-62
2022/02/07 12:58:35;;;;;;;10.15;4.70;;;;;;;;;;5093116;28;20464;-62
2022/02/07 13:01:20;;;;;;;10.00;4.90;;;;;;;;;;5093347;28;20364;-63
2022/02/07 13:03:50;;;;;;;34.95;16.00;;;;;;;;;;5092993;28;20046;-63
2022/02/07 13:06:16;;;;;;;17.13;7.53;;;;;;;;;;5092949;28;20489;-63
2022/02/07 13:08:47;;;;;;;8.15;4.88;;;;;;;;;;5092932;28;20024;-63
2022/02/07 13:11:23;;;;;;;9.70;4.90;;;;;;;;;;5093122;28;20072;-63
2022/02/07 13:13:50;;;;;;;14.38;5.95;;;;;;;;;;5092279;28;20097;-63
2022/02/07 13:16:17;;;;;;;12.25;5.95;;;;;;;;;;5073987;28;20085;-64
2022/02/07 13:18:43;;;;;;;8.93;5.32;;;;;;;;;;5091507;28;20157;-63
2022/02/07 13:21:13;;;;;;;13.05;7.03;;;;;;;;;;5091750;28;20534;-63
2022/02/07 13:23:42;;;;;;;20.80;9.25;;;;;;;;;;5091481;28;20119;-63
2022/02/07 13:26:11;;;;;;;16.60;8.82;;;;;;;;;;5092648;28;20472;-63
2022/02/07 13:28:39;;;;;;;15.70;7.53;;;;;;;;;;5093050;28;20024;-63
2022/02/07 13:31:06;;;;;;;15.82;8.80;;;;;;;;;;5092768;28;20035;-64
2022/02/07 13:33:49;;;;;;;243.32;95.80;;;;;;;;;;5091639;28;20441;-63
2022/02/07 13:36:25;;;;;;;16.02;7.32;;;;;;;;;;5091124;28;20028;-63
2022/02/07 13:38:52;;;;;;;4.25;3.10;;;;;;;;;;5092174;28;20412;-63
2022/02/07 13:41:21;;;;;;;2.80;1.65;;;;;;;;;;5092600;28;20042;-63
2022/02/07 13:43:47;;;;;;;2.97;2.08;;;;;;;;;;5092614;28;20170;-63
2022/02/07 13:46:17;;;;;;;3.00;2.10;;;;;;;;;;5091239;28;20032;-63
2022/02/07 13:48:43;;;;;;;7.18;3.08;;;;;;;;;;5091254;28;20024;-63
2022/02/07 13:51:09;;;;;;;6.18;3.35;;;;;;;;;;5092309;28;20459;-63
2022/02/07 13:53:38;;;;;;;4.90;2.40;;;;;;;;;;5090859;28;20059;-62
2022/02/07 13:56:05;;;;;;;2.75;2.30;;;;;;;;;;5092398;28;20028;-63
2022/02/07 13:58:34;;;;;;;3.42;1.80;;;;;;;;;;5091115;28;20032;-64
2022/02/07 14:01:01;;;;;;;43.58;20.15;;;;;;;;;;5092420;28;20036;-62
2022/02/07 14:03:44;;;;;;;10.82;6.75;;;;;;;;;;5092488;28;20031;-63
2022/02/07 14:06:11;;;;;;;9.45;4.70;;;;;;;;;;5091908;28;20058;-62
2022/02/07 14:08:50;;;;;;;8.73;4.00;;;;;;;;;;5092542;28;20028;-63
2022/02/07 14:11:19;;;;;;;6.22;3.83;;;;;;;;;;5092516;28;20020;-63
2022/02/07 14:13:46;;;;;;;9.75;5.15;;;;;;;;;;5092156;28;20048;-64
2022/02/07 14:16:14;;;;;;;9.20;3.95;;;;;;;;;;5092323;28;20039;-64
2022/02/07 14:18:48;;;;;;;3.25;1.85;;;;;;;;;;5092417;28;20028;-63
2022/02/07 14:21:15;;;;;;;6.07;2.95;;;;;;;;;;5092420;28;20036;-63
2022/02/07 14:23:46;;;;;;;7.15;2.80;;;;;;;;;;5091158;28;20032;-63
2022/02/07 14:26:16;;;;;;;10.57;3.30;;;;;;;;;;5095840;28;20028;-62
2022/02/07 14:28:43;;;;;;;101.70;48.30;;;;;;;;;;5096070;28;20024;-62
2022/02/07 14:31:11;;;;;;;10.45;5.57;;;;;;;;;;5095654;28;20444;-63
2022/02/07 14:33:38;;;;;;;8.75;4.40;;;;;;;;;;5095987;28;20032;-63
2022/02/07 14:36:05;;;;;;;8.00;3.00;;;;;;;;;;5095760;28;20024;-61
2022/02/07 14:38:32;;;;;;;17.13;8.63;;;;;;;;;;5094527;28;20024;-64
2022/02/07 14:40:59;;;;;;;8.63;5.32;;;;;;;;;;5113929;28;20034;-63
2022/02/07 14:43:31;;;;;;;7.57;3.58;;;;;;;;;;5116050;28;20471;-62
2022/02/07 14:48:31;;;;;;;5.85;3.42;;;;;;;;;;5116008;28;20038;-62
2022/02/07 14:50:57;;;;;;;4.72;2.80;;;;;;;;;;5097585;28;20130;-61
2022/02/07 14:53:24;;;;;;;8.68;3.97;;;;;;;;;;5097447;28;20518;-61
2022/02/07 14:55:53;;;;;;;6.95;3.72;;;;;;;;;;5115688;28;20032;-61
2022/02/07 14:58:21;;;;;;;8.18;3.40;;;;;;;;;;5115771;28;20027;-62
2022/02/07 15:00:47;;;;;;;6.07;2.97;;;;;;;;;;5097288;28;20034;-62
2022/02/07 15:03:17;;;;;;;8.73;3.85;;;;;;;;;;5115519;28;20019;-62
2022/02/07 15:05:43;;;;;;;10.05;4.70;;;;;;;;;;5097266;28;20057;-62
2022/02/07 15:08:09;;;;;;;10.13;5.22;;;;;;;;;;5115818;28;20436;-64
2022/02/07 15:10:36;;;;;;;7.35;4.35;;;;;;;;;;5115671;28;20213;-65
2022/02/07 15:13:03;;;;;;;8.23;4.07;;;;;;;;;;5115020;28;20427;-66
2022/02/07 15:15:29;;;;;;;7.55;3.22;;;;;;;;;;5115520;28;20051;-63
2022/02/07 15:17:58;;;;;;;6.43;3.15;;;;;;;;;;5115341;28;20035;-63
2022/02/07 15:20:24;;;;;;;15.60;5.57;;;;;;;;;;5115456;28;20445;-62
2022/02/07 15:22:51;;;;;;;6.78;3.72;;;;;;;;;;5115374;28;20026;-62
2022/02/07 15:25:19;;;;;;;11.30;5.20;;;;;;;;;;5096851;28;20063;-65
2022/02/07 15:27:49;;;;;;;10.60;4.88;;;;;;;;;;5096892;28;20038;-64
2022/02/07 15:30:18;;;;;;;9.07;5.25;;;;;;;;;;5115270;28;20073;-64
2022/02/07 15:32:48;;;;;;;11.65;4.38;;;;;;;;;;5115268;28;20074;-67
2022/02/07 15:35:15;;;;;;;14.18;5.70;;;;;;;;;;5114674;28;20016;-66
2022/02/07 15:37:41;;;;;;;15.25;6.30;;;;;;;;;;5114970;28;20053;-63
2022/02/07 15:40:09;;;;;;;21.95;9.23;;;;;;;;;;5115027;28;20091;-69
2022/02/07 15:42:35;;;;;;;16.15;6.45;;;;;;;;;;5114952;28;20063;-68
2022/02/07 15:45:01;;;;;;;16.73;7.00;;;;;;;;;;5114848;28;20048;-65
2022/02/07 15:47:34;;;;;;;29.52;7.80;;;;;;;;;;5114878;28;20067;-64
2022/02/07 15:50:08;;;;;;;17.02;6.63;;;;;;;;;;5114815;28;20043;-64
2022/02/07 15:52:35;;;;;;;18.15;7.13;;;;;;;;;;5114774;28;20024;-63
2022/02/07 15:55:01;;;;;;;11.43;5.38;;;;;;;;;;5096389;28;20031;-64
2022/02/07 15:57:27;;;;;;;15.85;6.78;;;;;;;;;;5114624;28;20452;-64
2022/02/07 15:59:54;;;;;;;15.05;6.80;;;;;;;;;;5104418;28;20073;-63
2022/02/07 16:02:20;;;;;;;14.50;7.60;;;;;;;;;;5093298;28;20103;-63
2022/02/07 16:04:46;;;;;;;19.85;8.45;;;;;;;;;;5093999;28;20392;-65
2022/02/07 16:07:13;;;;;;;18.73;8.43;;;;;;;;;;5094061;28;20064;-64
2022/02/07 16:09:39;;;;;;;18.88;8.65;;;;;;;;;;5093498;28;20445;-65
2022/02/07 16:12:13;;;;;;;18.05;7.60;;;;;;;;;;5093749;28;20028;-65
2022/02/07 16:14:39;;;;;;;14.60;6.85;;;;;;;;;;5075390;28;20127;-65
2022/02/07 16:17:06;;;;;;;30.55;9.88;;;;;;;;;;5093670;28;20031;-64
2022/02/07 16:19:32;;;;;;;18.20;8.38;;;;;;;;;;5093929;28;20024;-65
2022/02/07 16:21:58;;;;;;;26.00;10.63;;;;;;;;;;5075311;28;20426;-65
2022/02/07 16:24:25;;;;;;;24.63;9.80;;;;;;;;;;5075291;28;20445;-63
2022/02/07 16:26:51;;;;;;;18.20;7.60;;;;;;;;;;5093449;28;20475;-65
2022/02/07 16:29:18;;;;;;;17.13;8.20;;;;;;;;;;5075419;28;20032;-66
2022/02/07 16:31:45;;;;;;;16.35;7.68;;;;;;;;;;5093536;28;20035;-65
2022/02/07 16:34:18;;;;;;;16.77;7.63;;;;;;;;;;5074773;28;20142;-65
2022/02/07 16:36:44;;;;;;;20.83;9.85;;;;;;;;;;5093499;28;20081;-64
2022/02/07 16:39:11;;;;;;;22.88;9.98;;;;;;;;;;5093824;28;20122;-64
2022/02/07 16:41:37;;;;;;;27.73;10.77;;;;;;;;;;5075385;28;20368;-64
2022/02/07 16:44:05;;;;;;;32.67;13.23;;;;;;;;;;5093367;28;20410;-66
2022/02/07 16:48:58;;;;;;;19.17;7.60;;;;;;;;;;5092735;28;20036;-65
2022/02/07 16:51:25;;;;;;;12.35;5.82;;;;;;;;;;5093438;28;20028;-65
2022/02/07 16:53:52;;;;;;;21.73;9.07;;;;;;;;;;5093204;28;20027;-63